sensor_id;sensor_type;location;lat;lon;timestamp;P1;durP1;ratioP1;P2;durP2;ratioP2
25301;SDS011;13243;50.888;4.724;2022-12-29T00:00:46;2.35;;;1.25;;
25301;SDS011;13243;50.888;4.724;2022-12-29T00:05:53;1.75;;;1.15;;
25301;SDS011;13243;50.888;4.724;2022-12-29T00:10:56;1.65;;;1.10;;
25301;SDS011;13243;50.888;4.724;2022-12-29T00:15:58;3.15;;;1.08;;
25301;SDS011;13243;50.888;4.724;2022-12-29T00:21:00;2.63;;;1.10;;
25301;SDS011;13243;50.888;4.724;2022-12-29T00:26:20;1.20;;;0.93;;
25301;SDS011;13243;50.888;4.724;2022-12-29T00:31:41;1.23;;;0.70;;
25301;SDS011;13243;50.888;4.724;2022-12-29T00:37:01;0.52;;;0.52;;
25301;SDS011;13243;50.888;4.724;2022-12-29T00:42:04;1.90;;;0.95;;
25301;SDS011;13243;50.888;4.724;2022-12-29T00:47:25;2.85;;;1.02;;
25301;SDS011;13243;50.888;4.724;2022-12-29T00:52:27;3.08;;;0.77;;
25301;SDS011;13243;50.888;4.724;2022-12-29T00:57:29;2.28;;;0.90;;
25301;SDS011;13243;50.888;4.724;2022-12-29T01:02:31;4.38;;;1.60;;
25301;SDS011;13243;50.888;4.724;2022-12-29T01:07:33;1.73;;;0.88;;
25301;SDS011;13243;50.888;4.724;2022-12-29T01:12:35;3.47;;;0.90;;
25301;SDS011;13243;50.888;4.724;2022-12-29T01:17:43;2.22;;;0.95;;
25301;SDS011;13243;50.888;4.724;2022-12-29T01:22:45;6.22;;;1.10;;
25301;SDS011;13243;50.888;4.724;2022-12-29T01:27:47;0.93;;;0.88;;
25301;SDS011;13243;50.888;4.724;2022-12-29T01:32:48;3.15;;;1.02;;
25301;SDS011;13243;50.888;4.724;2022-12-29T01:37:50;3.42;;;1.17;;
25301;SDS011;13243;50.888;4.724;2022-12-29T01:42:52;3.70;;;1.00;;
25301;SDS011;13243;50.888;4.724;2022-12-29T01:47:57;3.92;;;1.00;;
25301;SDS011;13243;50.888;4.724;2022-12-29T01:53:10;4.18;;;1.15;;
25301;SDS011;13243;50.888;4.724;2022-12-29T01:58:19;4.45;;;1.13;;
25301;SDS011;13243;50.888;4.724;2022-12-29T02:03:23;3.75;;;1.13;;
25301;SDS011;13243;50.888;4.724;2022-12-29T02:08:28;4.05;;;1.20;;
25301;SDS011;13243;50.888;4.724;2022-12-29T02:13:30;3.63;;;1.17;;
25301;SDS011;13243;50.888;4.724;2022-12-29T02:18:43;2.95;;;1.00;;
25301;SDS011;13243;50.888;4.724;2022-12-29T02:29:14;1.55;;;0.90;;
25301;SDS011;13243;50.888;4.724;2022-12-29T02:34:27;4.28;;;0.60;;
25301;SDS011;13243;50.888;4.724;2022-12-29T02:39:44;0.93;;;0.50;;
25301;SDS011;13243;50.888;4.724;2022-12-29T02:45:13;0.63;;;0.50;;
25301;SDS011;13243;50.888;4.724;2022-12-29T02:50:23;2.95;;;0.70;;
25301;SDS011;13243;50.888;4.724;2022-12-29T02:55:48;1.50;;;0.60;;
25301;SDS011;13243;50.888;4.724;2022-12-29T03:06:15;1.70;;;0.50;;
25301;SDS011;13243;50.888;4.724;2022-12-29T03:11:35;2.53;;;0.85;;
25301;SDS011;13243;50.888;4.724;2022-12-29T03:17:07;0.68;;;0.47;;
25301;SDS011;13243;50.888;4.724;2022-12-29T03:22:25;1.00;;;0.52;;
25301;SDS011;13243;50.888;4.724;2022-12-29T03:27:33;1.05;;;0.45;;
25301;SDS011;13243;50.888;4.724;2022-12-29T03:32:40;2.47;;;0.60;;
25301;SDS011;13243;50.888;4.724;2022-12-29T03:43:01;1.55;;;0.32;;
25301;SDS011;13243;50.888;4.724;2022-12-29T03:48:04;1.05;;;0.40;;
25301;SDS011;13243;50.888;4.724;2022-12-29T03:53:06;1.33;;;0.55;;
25301;SDS011;13243;50.888;4.724;2022-12-29T03:58:08;4.22;;;0.90;;
25301;SDS011;13243;50.888;4.724;2022-12-29T04:03:10;2.28;;;0.70;;
25301;SDS011;13243;50.888;4.724;2022-12-29T04:08:12;3.00;;;0.85;;
25301;SDS011;13243;50.888;4.724;2022-12-29T04:13:14;3.20;;;0.73;;
25301;SDS011;13243;50.888;4.724;2022-12-29T04:18:18;5.63;;;0.80;;
25301;SDS011;13243;50.888;4.724;2022-12-29T04:23:20;5.70;;;1.13;;
25301;SDS011;13243;50.888;4.724;2022-12-29T04:28:22;3.05;;;0.77;;
25301;SDS011;13243;50.888;4.724;2022-12-29T04:33:24;3.38;;;0.70;;
25301;SDS011;13243;50.888;4.724;2022-12-29T04:38:26;0.90;;;0.52;;
25301;SDS011;13243;50.888;4.724;2022-12-29T04:43:28;1.20;;;0.73;;
25301;SDS011;13243;50.888;4.724;2022-12-29T04:48:30;1.73;;;0.93;;
25301;SDS011;13243;50.888;4.724;2022-12-29T04:53:32;3.88;;;0.77;;
25301;SDS011;13243;50.888;4.724;2022-12-29T04:58:34;3.30;;;1.20;;
25301;SDS011;13243;50.888;4.724;2022-12-29T05:03:36;4.43;;;1.00;;
25301;SDS011;13243;50.888;4.724;2022-12-29T05:08:38;3.33;;;0.90;;
25301;SDS011;13243;50.888;4.724;2022-12-29T05:13:40;2.65;;;0.80;;
25301;SDS011;13243;50.888;4.724;2022-12-29T05:18:42;8.27;;;1.60;;
25301;SDS011;13243;50.888;4.724;2022-12-29T05:23:44;7.68;;;1.02;;
25301;SDS011;13243;50.888;4.724;2022-12-29T05:28:46;1.65;;;0.98;;
25301;SDS011;13243;50.888;4.724;2022-12-29T05:33:47;2.78;;;0.90;;
25301;SDS011;13243;50.888;4.724;2022-12-29T05:38:49;3.72;;;0.80;;
25301;SDS011;13243;50.888;4.724;2022-12-29T05:43:51;6.32;;;1.10;;
25301;SDS011;13243;50.888;4.724;2022-12-29T05:48:53;5.30;;;1.67;;
25301;SDS011;13243;50.888;4.724;2022-12-29T05:53:55;4.28;;;1.00;;
25301;SDS011;13243;50.888;4.724;2022-12-29T05:58:57;6.70;;;1.85;;
25301;SDS011;13243;50.888;4.724;2022-12-29T06:03:58;5.55;;;1.02;;
25301;SDS011;13243;50.888;4.724;2022-12-29T06:09:01;9.80;;;0.88;;
25301;SDS011;13243;50.888;4.724;2022-12-29T06:14:02;11.98;;;1.67;;
25301;SDS011;13243;50.888;4.724;2022-12-29T06:19:04;5.72;;;1.25;;
25301;SDS011;13243;50.888;4.724;2022-12-29T06:24:06;8.68;;;1.42;;
25301;SDS011;13243;50.888;4.724;2022-12-29T06:29:08;6.20;;;1.00;;
25301;SDS011;13243;50.888;4.724;2022-12-29T06:34:10;7.25;;;1.15;;
25301;SDS011;13243;50.888;4.724;2022-12-29T06:39:13;8.73;;;1.02;;
25301;SDS011;13243;50.888;4.724;2022-12-29T06:44:15;13.65;;;1.40;;
25301;SDS011;13243;50.888;4.724;2022-12-29T06:49:17;17.40;;;1.88;;
25301;SDS011;13243;50.888;4.724;2022-12-29T06:54:18;6.97;;;1.30;;
25301;SDS011;13243;50.888;4.724;2022-12-29T06:59:20;3.60;;;0.90;;
25301;SDS011;13243;50.888;4.724;2022-12-29T07:04:22;1.60;;;0.90;;
25301;SDS011;13243;50.888;4.724;2022-12-29T07:09:24;13.07;;;1.30;;
25301;SDS011;13243;50.888;4.724;2022-12-29T07:14:26;4.50;;;1.35;;
25301;SDS011;13243;50.888;4.724;2022-12-29T07:19:28;8.52;;;2.03;;
25301;SDS011;13243;50.888;4.724;2022-12-29T07:24:30;12.68;;;2.85;;
25301;SDS011;13243;50.888;4.724;2022-12-29T07:29:32;3.88;;;1.33;;
25301;SDS011;13243;50.888;4.724;2022-12-29T07:34:33;8.13;;;1.40;;
25301;SDS011;13243;50.888;4.724;2022-12-29T07:39:35;5.88;;;1.30;;
25301;SDS011;13243;50.888;4.724;2022-12-29T07:44:37;10.10;;;1.70;;
25301;SDS011;13243;50.888;4.724;2022-12-29T07:49:39;7.70;;;1.50;;
25301;SDS011;13243;50.888;4.724;2022-12-29T07:54:41;9.70;;;1.60;;
25301;SDS011;13243;50.888;4.724;2022-12-29T07:59:43;6.30;;;1.00;;
25301;SDS011;13243;50.888;4.724;2022-12-29T08:04:44;7.35;;;1.73;;
25301;SDS011;13243;50.888;4.724;2022-12-29T08:09:46;9.65;;;1.30;;
25301;SDS011;13243;50.888;4.724;2022-12-29T08:14:48;6.95;;;1.45;;
25301;SDS011;13243;50.888;4.724;2022-12-29T08:19:50;8.38;;;1.30;;
25301;SDS011;13243;50.888;4.724;2022-12-29T08:24:52;10.30;;;1.83;;
25301;SDS011;13243;50.888;4.724;2022-12-29T08:29:54;6.95;;;1.60;;
25301;SDS011;13243;50.888;4.724;2022-12-29T08:34:55;6.32;;;1.40;;
25301;SDS011;13243;50.888;4.724;2022-12-29T08:39:57;6.80;;;1.42;;
25301;SDS011;13243;50.888;4.724;2022-12-29T08:45:01;8.55;;;1.77;;
25301;SDS011;13243;50.888;4.724;2022-12-29T08:50:03;5.97;;;1.23;;
25301;SDS011;13243;50.888;4.724;2022-12-29T08:55:05;7.55;;;1.40;;
25301;SDS011;13243;50.888;4.724;2022-12-29T09:00:08;6.50;;;1.48;;
25301;SDS011;13243;50.888;4.724;2022-12-29T09:05:10;8.75;;;1.58;;
25301;SDS011;13243;50.888;4.724;2022-12-29T09:10:12;8.07;;;1.48;;
25301;SDS011;13243;50.888;4.724;2022-12-29T09:15:14;7.70;;;1.35;;
25301;SDS011;13243;50.888;4.724;2022-12-29T09:20:18;11.07;;;1.65;;
25301;SDS011;13243;50.888;4.724;2022-12-29T09:25:20;9.23;;;1.55;;
25301;SDS011;13243;50.888;4.724;2022-12-29T09:30:26;9.50;;;1.88;;
25301;SDS011;13243;50.888;4.724;2022-12-29T09:35:28;8.52;;;1.48;;
25301;SDS011;13243;50.888;4.724;2022-12-29T09:40:30;8.57;;;1.45;;
25301;SDS011;13243;50.888;4.724;2022-12-29T09:45:42;15.20;;;2.50;;
25301;SDS011;13243;50.888;4.724;2022-12-29T09:50:54;17.42;;;2.38;;
25301;SDS011;13243;50.888;4.724;2022-12-29T09:56:00;5.53;;;1.23;;
25301;SDS011;13243;50.888;4.724;2022-12-29T10:01:08;10.68;;;1.40;;
25301;SDS011;13243;50.888;4.724;2022-12-29T10:06:34;9.43;;;1.58;;
25301;SDS011;13243;50.888;4.724;2022-12-29T10:33:22;6.97;;;1.55;;
25301;SDS011;13243;50.888;4.724;2022-12-29T10:38:35;10.77;;;1.50;;
25301;SDS011;13243;50.888;4.724;2022-12-29T10:43:47;11.70;;;2.03;;
25301;SDS011;13243;50.888;4.724;2022-12-29T10:48:54;10.88;;;1.75;;
25301;SDS011;13243;50.888;4.724;2022-12-29T10:59:23;8.20;;;1.42;;
25301;SDS011;13243;50.888;4.724;2022-12-29T11:09:45;7.45;;;1.25;;
25301;SDS011;13243;50.888;4.724;2022-12-29T11:14:47;13.70;;;2.30;;
25301;SDS011;13243;50.888;4.724;2022-12-29T11:20:33;12.75;;;2.40;;
25301;SDS011;13243;50.888;4.724;2022-12-29T11:25:39;9.00;;;1.95;;
25301;SDS011;13243;50.888;4.724;2022-12-29T11:30:43;6.82;;;1.45;;
25301;SDS011;13243;50.888;4.724;2022-12-29T11:35:45;6.88;;;1.70;;
25301;SDS011;13243;50.888;4.724;2022-12-29T11:40:47;17.30;;;2.28;;
25301;SDS011;13243;50.888;4.724;2022-12-29T11:45:51;11.90;;;1.73;;
25301;SDS011;13243;50.888;4.724;2022-12-29T11:50:56;14.40;;;1.92;;
25301;SDS011;13243;50.888;4.724;2022-12-29T11:56:02;9.77;;;1.58;;
25301;SDS011;13243;50.888;4.724;2022-12-29T12:06:41;11.38;;;1.63;;
25301;SDS011;13243;50.888;4.724;2022-12-29T12:11:48;9.43;;;1.80;;
25301;SDS011;13243;50.888;4.724;2022-12-29T12:16:59;8.23;;;1.48;;
25301;SDS011;13243;50.888;4.724;2022-12-29T12:22:10;5.90;;;1.20;;
25301;SDS011;13243;50.888;4.724;2022-12-29T12:27:26;6.72;;;1.85;;
25301;SDS011;13243;50.888;4.724;2022-12-29T12:32:39;9.70;;;1.58;;
25301;SDS011;13243;50.888;4.724;2022-12-29T12:37:56;6.80;;;2.25;;
25301;SDS011;13243;50.888;4.724;2022-12-29T12:43:22;14.27;;;1.83;;
25301;SDS011;13243;50.888;4.724;2022-12-29T12:48:59;8.32;;;2.35;;
25301;SDS011;13243;50.888;4.724;2022-12-29T13:26:54;11.73;;;2.15;;
25301;SDS011;13243;50.888;4.724;2022-12-29T13:37:15;11.38;;;1.77;;
25301;SDS011;13243;50.888;4.724;2022-12-29T13:42:19;7.00;;;1.33;;
25301;SDS011;13243;50.888;4.724;2022-12-29T13:47:27;4.38;;;1.45;;
25301;SDS011;13243;50.888;4.724;2022-12-29T13:52:48;6.63;;;1.38;;
25301;SDS011;13243;50.888;4.724;2022-12-29T14:08:50;9.18;;;1.65;;
25301;SDS011;13243;50.888;4.724;2022-12-29T14:19:26;8.98;;;1.70;;
25301;SDS011;13243;50.888;4.724;2022-12-29T14:34:44;7.43;;;2.13;;
25301;SDS011;13243;50.888;4.724;2022-12-29T14:50:23;18.85;;;2.97;;
25301;SDS011;13243;50.888;4.724;2022-12-29T14:55:41;12.15;;;1.88;;
25301;SDS011;13243;50.888;4.724;2022-12-29T15:00:48;15.80;;;2.15;;
25301;SDS011;13243;50.888;4.724;2022-12-29T15:05:54;14.02;;;2.55;;
25301;SDS011;13243;50.888;4.724;2022-12-29T15:11:01;15.13;;;2.75;;
25301;SDS011;13243;50.888;4.724;2022-12-29T15:21:34;12.95;;;2.33;;
25301;SDS011;13243;50.888;4.724;2022-12-29T15:26:41;12.68;;;1.98;;
25301;SDS011;13243;50.888;4.724;2022-12-29T15:31:46;3.80;;;1.23;;
25301;SDS011;13243;50.888;4.724;2022-12-29T15:36:50;6.10;;;1.70;;
25301;SDS011;13243;50.888;4.724;2022-12-29T15:41:53;5.90;;;1.30;;
25301;SDS011;13243;50.888;4.724;2022-12-29T15:47:06;3.97;;;0.97;;
25301;SDS011;13243;50.888;4.724;2022-12-29T15:52:24;1.98;;;1.30;;
25301;SDS011;13243;50.888;4.724;2022-12-29T15:57:27;7.60;;;1.50;;
25301;SDS011;13243;50.888;4.724;2022-12-29T16:02:31;5.45;;;1.50;;
25301;SDS011;13243;50.888;4.724;2022-12-29T16:07:35;9.77;;;2.55;;
25301;SDS011;13243;50.888;4.724;2022-12-29T16:12:42;8.65;;;1.45;;
25301;SDS011;13243;50.888;4.724;2022-12-29T16:17:47;4.82;;;1.83;;
25301;SDS011;13243;50.888;4.724;2022-12-29T16:22:57;5.43;;;1.60;;
25301;SDS011;13243;50.888;4.724;2022-12-29T16:28:01;7.30;;;2.20;;
25301;SDS011;13243;50.888;4.724;2022-12-29T16:33:28;10.13;;;2.05;;
25301;SDS011;13243;50.888;4.724;2022-12-29T16:38:38;8.95;;;2.22;;
25301;SDS011;13243;50.888;4.724;2022-12-29T16:43:44;12.90;;;2.75;;
25301;SDS011;13243;50.888;4.724;2022-12-29T16:48:49;18.65;;;2.80;;
25301;SDS011;13243;50.888;4.724;2022-12-29T16:53:54;9.10;;;2.35;;
25301;SDS011;13243;50.888;4.724;2022-12-29T16:59:00;12.73;;;2.15;;
25301;SDS011;13243;50.888;4.724;2022-12-29T17:04:10;21.90;;;2.90;;
25301;SDS011;13243;50.888;4.724;2022-12-29T17:09:21;12.45;;;2.28;;
25301;SDS011;13243;50.888;4.724;2022-12-29T17:20:00;18.17;;;2.35;;
25301;SDS011;13243;50.888;4.724;2022-12-29T17:25:10;13.23;;;2.65;;
25301;SDS011;13243;50.888;4.724;2022-12-29T17:30:15;12.32;;;2.67;;
25301;SDS011;13243;50.888;4.724;2022-12-29T17:35:19;10.68;;;2.30;;
25301;SDS011;13243;50.888;4.724;2022-12-29T17:40:26;15.73;;;3.03;;
25301;SDS011;13243;50.888;4.724;2022-12-29T17:45:30;11.13;;;2.00;;
25301;SDS011;13243;50.888;4.724;2022-12-29T17:50:32;14.38;;;2.63;;
25301;SDS011;13243;50.888;4.724;2022-12-29T17:55:34;16.10;;;2.83;;
25301;SDS011;13243;50.888;4.724;2022-12-29T18:00:38;18.80;;;2.58;;
25301;SDS011;13243;50.888;4.724;2022-12-29T18:05:40;11.88;;;2.33;;
25301;SDS011;13243;50.888;4.724;2022-12-29T18:10:42;15.95;;;2.88;;
25301;SDS011;13243;50.888;4.724;2022-12-29T18:15:44;11.63;;;2.90;;
25301;SDS011;13243;50.888;4.724;2022-12-29T18:20:48;13.13;;;1.98;;
25301;SDS011;13243;50.888;4.724;2022-12-29T18:25:53;13.48;;;2.15;;
25301;SDS011;13243;50.888;4.724;2022-12-29T18:30:59;12.15;;;2.22;;
25301;SDS011;13243;50.888;4.724;2022-12-29T18:36:02;12.25;;;2.30;;
25301;SDS011;13243;50.888;4.724;2022-12-29T18:41:08;14.55;;;2.60;;
25301;SDS011;13243;50.888;4.724;2022-12-29T18:46:20;12.77;;;2.08;;
25301;SDS011;13243;50.888;4.724;2022-12-29T18:51:24;13.60;;;2.45;;
25301;SDS011;13243;50.888;4.724;2022-12-29T18:56:26;8.82;;;2.67;;
25301;SDS011;13243;50.888;4.724;2022-12-29T19:01:28;17.88;;;2.78;;
25301;SDS011;13243;50.888;4.724;2022-12-29T19:06:31;9.90;;;2.40;;
25301;SDS011;13243;50.888;4.724;2022-12-29T19:11:33;18.02;;;2.92;;
25301;SDS011;13243;50.888;4.724;2022-12-29T19:16:35;13.13;;;2.47;;
25301;SDS011;13243;50.888;4.724;2022-12-29T19:21:37;11.20;;;2.47;;
25301;SDS011;13243;50.888;4.724;2022-12-29T19:26:39;14.05;;;3.40;;
25301;SDS011;13243;50.888;4.724;2022-12-29T19:31:41;17.95;;;2.70;;
25301;SDS011;13243;50.888;4.724;2022-12-29T19:36:44;13.43;;;3.00;;
25301;SDS011;13243;50.888;4.724;2022-12-29T19:41:46;18.30;;;3.03;;
25301;SDS011;13243;50.888;4.724;2022-12-29T19:46:48;8.40;;;2.25;;
25301;SDS011;13243;50.888;4.724;2022-12-29T19:51:50;16.08;;;2.72;;
25301;SDS011;13243;50.888;4.724;2022-12-29T19:56:51;8.93;;;2.33;;
25301;SDS011;13243;50.888;4.724;2022-12-29T20:01:53;13.57;;;3.00;;
25301;SDS011;13243;50.888;4.724;2022-12-29T20:06:55;12.35;;;2.70;;
25301;SDS011;13243;50.888;4.724;2022-12-29T20:11:57;27.00;;;3.80;;
25301;SDS011;13243;50.888;4.724;2022-12-29T20:16:59;17.73;;;2.70;;
25301;SDS011;13243;50.888;4.724;2022-12-29T20:22:11;15.52;;;2.55;;
25301;SDS011;13243;50.888;4.724;2022-12-29T20:27:14;12.23;;;2.00;;
25301;SDS011;13243;50.888;4.724;2022-12-29T20:32:20;12.30;;;2.90;;
25301;SDS011;13243;50.888;4.724;2022-12-29T20:37:25;15.82;;;2.88;;
25301;SDS011;13243;50.888;4.724;2022-12-29T20:42:27;19.77;;;3.90;;
25301;SDS011;13243;50.888;4.724;2022-12-29T20:47:29;16.77;;;3.28;;
25301;SDS011;13243;50.888;4.724;2022-12-29T20:52:31;17.77;;;2.60;;
25301;SDS011;13243;50.888;4.724;2022-12-29T20:57:33;11.63;;;2.00;;
25301;SDS011;13243;50.888;4.724;2022-12-29T21:02:55;10.85;;;2.20;;
25301;SDS011;13243;50.888;4.724;2022-12-29T21:07:58;13.25;;;3.05;;
25301;SDS011;13243;50.888;4.724;2022-12-29T21:13:00;14.35;;;2.70;;
25301;SDS011;13243;50.888;4.724;2022-12-29T21:18:02;19.83;;;2.92;;
25301;SDS011;13243;50.888;4.724;2022-12-29T21:23:04;10.57;;;2.67;;
25301;SDS011;13243;50.888;4.724;2022-12-29T21:28:07;14.55;;;2.70;;
25301;SDS011;13243;50.888;4.724;2022-12-29T21:33:12;15.60;;;2.17;;
25301;SDS011;13243;50.888;4.724;2022-12-29T21:38:14;12.40;;;3.28;;
25301;SDS011;13243;50.888;4.724;2022-12-29T21:43:15;19.88;;;3.60;;
25301;SDS011;13243;50.888;4.724;2022-12-29T21:48:17;19.48;;;2.53;;
25301;SDS011;13243;50.888;4.724;2022-12-29T21:53:23;11.65;;;2.75;;
25301;SDS011;13243;50.888;4.724;2022-12-29T21:58:38;13.00;;;1.75;;
25301;SDS011;13243;50.888;4.724;2022-12-29T22:04:00;10.02;;;2.95;;
25301;SDS011;13243;50.888;4.724;2022-12-29T22:09:21;9.48;;;2.67;;
25301;SDS011;13243;50.888;4.724;2022-12-29T22:14:44;12.82;;;3.00;;
25301;SDS011;13243;50.888;4.724;2022-12-29T22:19:46;12.63;;;2.17;;
25301;SDS011;13243;50.888;4.724;2022-12-29T22:24:47;12.10;;;2.90;;
25301;SDS011;13243;50.888;4.724;2022-12-29T22:29:49;11.50;;;2.45;;
25301;SDS011;13243;50.888;4.724;2022-12-29T22:34:51;8.90;;;2.30;;
25301;SDS011;13243;50.888;4.724;2022-12-29T22:39:53;16.52;;;2.40;;
25301;SDS011;13243;50.888;4.724;2022-12-29T22:44:55;12.57;;;2.40;;
25301;SDS011;13243;50.888;4.724;2022-12-29T22:49:57;15.95;;;3.42;;
25301;SDS011;13243;50.888;4.724;2022-12-29T22:54:59;18.90;;;3.70;;
25301;SDS011;13243;50.888;4.724;2022-12-29T23:00:07;16.10;;;3.08;;
25301;SDS011;13243;50.888;4.724;2022-12-29T23:05:09;24.35;;;3.42;;
25301;SDS011;13243;50.888;4.724;2022-12-29T23:10:15;15.65;;;3.08;;
25301;SDS011;13243;50.888;4.724;2022-12-29T23:15:17;13.75;;;2.75;;
25301;SDS011;13243;50.888;4.724;2022-12-29T23:20:19;6.95;;;1.90;;
25301;SDS011;13243;50.888;4.724;2022-12-29T23:25:20;11.05;;;2.13;;
25301;SDS011;13243;50.888;4.724;2022-12-29T23:30:22;9.70;;;2.65;;
25301;SDS011;13243;50.888;4.724;2022-12-29T23:35:24;14.35;;;3.28;;
25301;SDS011;13243;50.888;4.724;2022-12-29T23:40:26;14.73;;;2.80;;
25301;SDS011;13243;50.888;4.724;2022-12-29T23:45:28;13.32;;;2.45;;
25301;SDS011;13243;50.888;4.724;2022-12-29T23:50:29;18.83;;;2.92;;
25301;SDS011;13243;50.888;4.724;2022-12-29T23:55:32;10.93;;;2.60;;
